createdAt,value
2022-12-27T00:00:31.154Z,156.62
2022-12-27T00:03:38.059Z,146.96
2022-12-27T00:06:44.471Z,143.47
2022-12-27T00:09:51.496Z,149.75
2022-12-27T00:13:00.189Z,145.17
2022-12-27T00:16:09.020Z,141.13
2022-12-27T00:19:15.179Z,142.53
2022-12-27T00:22:22.615Z,139.37
2022-12-27T00:25:28.681Z,138.46
2022-12-27T00:28:39.651Z,135.73
2022-12-27T00:31:45.836Z,127.30
2022-12-27T00:34:52.790Z,108.93
2022-12-27T00:37:58.841Z,107.77
2022-12-27T00:41:07.328Z,105.02
2022-12-27T00:44:15.995Z,99.27
2022-12-27T00:47:22.845Z,94.63
2022-12-27T00:50:28.920Z,99.90
2022-12-27T00:53:37.997Z,96.96
2022-12-27T00:56:44.128Z,94.54
2022-12-27T00:59:53.960Z,94.18
2022-12-27T01:03:00.657Z,91.54
2022-12-27T01:06:08.726Z,93.43
2022-12-27T01:09:14.792Z,89.68
2022-12-27T01:12:21.624Z,94.68
2022-12-27T01:15:30.663Z,103.35
2022-12-27T01:18:37.452Z,103.79
2022-12-27T01:21:44.225Z,106.95
2022-12-27T01:24:51.468Z,105.82
2022-12-27T01:27:57.465Z,102.79
2022-12-27T01:31:13.703Z,104.08
2022-12-27T01:34:21.451Z,98.43
2022-12-27T01:37:30.313Z,87.18
2022-12-27T01:40:38.972Z,86.81
2022-12-27T01:43:43.143Z,82.29
2022-12-27T01:46:51.984Z,81.85
2022-12-27T01:50:10.216Z,78.70
2022-12-27T01:53:24.252Z,80.49
2022-12-27T01:56:35.021Z,81.44
2022-12-27T01:59:42.830Z,84.02
2022-12-27T02:02:54.242Z,85.43
2022-12-27T02:06:04.807Z,98.11
2022-12-27T02:09:23.903Z,102.67
2022-12-27T02:12:31.725Z,97.00
2022-12-27T02:15:39.285Z,97.34
2022-12-27T02:18:49.848Z,95.70
2022-12-27T02:22:53.443Z,98.53
2022-12-27T02:26:42.206Z,102.08
2022-12-27T02:30:09.136Z,98.56
2022-12-27T02:33:28.177Z,98.85
2022-12-27T02:36:42.292Z,98.68
2022-12-27T02:39:53.306Z,97.37
2022-12-27T02:43:13.558Z,95.74
2022-12-27T02:46:51.884Z,91.71
2022-12-27T02:50:11.052Z,91.16
2022-12-27T02:53:37.044Z,98.84
2022-12-27T02:57:13.648Z,88.06
2022-12-27T03:00:36.818Z,76.12
2022-12-27T03:04:12.901Z,77.45
2022-12-27T03:07:38.820Z,75.92
2022-12-27T03:11:09.084Z,64.78
2022-12-27T03:14:41.235Z,62.33
2022-12-27T03:18:05.719Z,62.28
2022-12-27T03:21:37.092Z,58.38
2022-12-27T03:24:57.276Z,56.03
2022-12-27T03:28:22.184Z,55.05
2022-12-27T03:31:48.124Z,54.42
2022-12-27T03:35:03.809Z,53.67
2022-12-27T03:38:15.403Z,49.98
2022-12-27T03:41:45.023Z,47.25
2022-12-27T03:44:53.058Z,51.18
2022-12-27T03:48:06.169Z,90.85
2022-12-27T03:51:16.172Z,89.25
2022-12-27T03:54:32.493Z,93.38
2022-12-27T03:57:40.808Z,37.19
2022-12-27T04:00:46.907Z,42.33
2022-12-27T04:03:53.797Z,29.43
2022-12-27T04:07:00.077Z,40.09
2022-12-27T04:10:22.700Z,46.93
2022-12-27T04:13:41.124Z,47.41
2022-12-27T04:17:00.429Z,71.78
2022-12-27T04:20:19.054Z,66.28
2022-12-27T04:23:38.501Z,84.33
2022-12-27T04:26:59.437Z,51.73
2022-12-27T04:30:19.037Z,53.47
2022-12-27T04:33:37.349Z,65.48
2022-12-27T04:36:44.425Z,62.72
2022-12-27T04:40:12.731Z,59.86
2022-12-27T04:43:34.552Z,38.46
2022-12-27T04:46:52.973Z,56.80
2022-12-27T04:50:12.218Z,61.86
2022-12-27T04:53:34.094Z,69.26
2022-12-27T04:56:40.943Z,71.22
2022-12-27T05:00:01.954Z,68.33
2022-12-27T05:03:15.437Z,65.00
2022-12-27T05:06:23.251Z,68.15
2022-12-27T05:09:57.558Z,66.54
2022-12-27T05:13:15.941Z,65.99
2022-12-27T05:16:25.445Z,68.19
2022-12-27T05:19:31.468Z,52.29
2022-12-27T05:22:50.403Z,60.02
2022-12-27T05:25:56.409Z,53.98
2022-12-27T05:29:04.076Z,55.51
2022-12-27T05:32:13.821Z,67.71
2022-12-27T05:35:20.745Z,81.76
2022-12-27T05:38:26.693Z,69.11
2022-12-27T05:41:34.440Z,63.81
2022-12-27T05:44:40.463Z,67.76
2022-12-27T05:47:50.008Z,72.37
2022-12-27T05:50:56.044Z,71.07
2022-12-27T05:54:03.389Z,65.22
2022-12-27T05:57:09.477Z,58.09
2022-12-27T06:00:18.036Z,57.45
2022-12-27T06:03:27.964Z,76.21
2022-12-27T06:06:35.101Z,90.95
2022-12-27T06:09:41.380Z,88.15
2022-12-27T06:12:48.196Z,85.63
2022-12-27T06:15:54.177Z,80.37
2022-12-27T06:19:03.677Z,63.38
2022-12-27T06:22:09.846Z,120.91
2022-12-27T06:25:17.051Z,101.98
2022-12-27T06:28:23.911Z,81.77
2022-12-27T06:31:31.627Z,66.34
2022-12-27T06:34:42.796Z,66.92
2022-12-27T06:37:49.654Z,86.08
2022-12-27T06:40:55.600Z,81.43
2022-12-27T06:44:02.589Z,85.16
2022-12-27T06:47:08.895Z,80.31
2022-12-27T06:50:18.547Z,83.97
2022-12-27T06:53:24.636Z,79.32
2022-12-27T06:56:31.574Z,80.22
2022-12-27T06:59:37.596Z,80.03
2022-12-27T07:02:45.819Z,76.97
2022-12-27T07:05:54.494Z,86.84
2022-12-27T07:09:03.909Z,80.95
2022-12-27T07:12:10.600Z,80.05
2022-12-27T07:15:17.723Z,75.27
2022-12-27T07:18:23.730Z,82.65
2022-12-27T07:21:33.321Z,72.77
2022-12-27T07:24:39.494Z,82.61
2022-12-27T07:27:47.351Z,177.89
2022-12-27T07:30:53.434Z,98.24
2022-12-27T07:34:03.154Z,85.93
2022-12-27T07:37:12.020Z,82.82
2022-12-27T07:40:19.122Z,73.87
2022-12-27T07:43:25.195Z,69.00
2022-12-27T07:46:33.143Z,70.69
2022-12-27T07:49:39.203Z,76.46
2022-12-27T07:52:48.975Z,68.66
2022-12-27T07:55:55.224Z,67.14
2022-12-27T07:59:05.281Z,55.64
2022-12-27T08:02:14.115Z,48.34
2022-12-27T08:05:25.961Z,50.23
2022-12-27T08:08:46.712Z,45.83
2022-12-27T08:11:53.528Z,43.59
2022-12-27T08:14:59.562Z,42.60
2022-12-27T08:18:06.518Z,37.53
2022-12-27T08:21:14.392Z,35.13
2022-12-27T08:24:24.783Z,39.09
2022-12-27T08:27:30.908Z,38.85
2022-12-27T08:30:38.436Z,49.16
2022-12-27T08:33:45.075Z,40.95
2022-12-27T08:36:55.938Z,60.83
2022-12-27T08:40:05.107Z,104.34
2022-12-27T08:43:13.258Z,69.99
2022-12-27T08:46:19.989Z,104.45
2022-12-27T08:49:27.743Z,81.71
2022-12-27T08:52:33.781Z,110.05
2022-12-27T08:55:43.336Z,63.84
2022-12-27T08:58:52.097Z,72.85
2022-12-27T09:01:59.149Z,81.48
2022-12-27T09:05:05.268Z,58.61
2022-12-27T09:08:13.791Z,47.36
2022-12-27T09:11:26.105Z,35.92
2022-12-27T09:14:36.079Z,44.58
2022-12-27T09:17:42.980Z,49.19
2022-12-27T09:20:49.933Z,35.96
2022-12-27T09:23:56.084Z,43.51
2022-12-27T09:27:05.573Z,41.67
2022-12-27T09:30:13.327Z,39.84
2022-12-27T09:33:20.231Z,34.37
2022-12-27T09:36:30.059Z,30.62
2022-12-27T09:39:36.935Z,36.42
2022-12-27T09:43:12.567Z,38.00
2022-12-27T09:46:41.624Z,30.43
2022-12-27T09:49:54.959Z,33.02
2022-12-27T09:53:11.919Z,29.50
2022-12-27T09:56:40.857Z,28.92
2022-12-27T10:00:05.815Z,31.79
2022-12-27T10:03:13.250Z,27.38
2022-12-27T10:06:47.214Z,29.03
2022-12-27T10:10:13.444Z,26.98
2022-12-27T10:13:46.428Z,29.24
2022-12-27T10:17:10.302Z,27.98
2022-12-27T10:20:34.851Z,29.64
2022-12-27T10:23:50.714Z,68.90
2022-12-27T10:26:59.043Z,37.67
2022-12-27T10:30:07.168Z,36.16
2022-12-27T10:33:27.838Z,71.02
2022-12-27T10:36:36.945Z,38.80
2022-12-27T10:39:45.744Z,47.04
2022-12-27T10:43:06.390Z,65.39
2022-12-27T10:46:23.580Z,40.50
2022-12-27T10:49:37.147Z,39.34
2022-12-27T10:52:44.151Z,49.73
2022-12-27T10:55:50.277Z,39.07
2022-12-27T10:59:08.909Z,49.39
2022-12-27T11:02:23.206Z,43.54
2022-12-27T11:05:37.369Z,32.80
2022-12-27T11:08:43.550Z,42.36
2022-12-27T11:11:50.483Z,32.21
2022-12-27T11:15:02.974Z,27.26
2022-12-27T11:18:21.212Z,27.83
2022-12-27T11:21:32.646Z,28.81
2022-12-27T11:24:40.671Z,31.01
2022-12-27T11:27:52.684Z,26.16
2022-12-27T11:31:04.332Z,25.87
2022-12-27T11:34:20.819Z,54.51
2022-12-27T11:37:31.142Z,39.56
2022-12-27T11:40:37.745Z,28.99
2022-12-27T11:43:55.156Z,28.77
2022-12-27T11:47:14.742Z,74.68
2022-12-27T11:50:53.246Z,93.87
2022-12-27T11:54:43.175Z,68.75
2022-12-27T11:58:27.341Z,66.77
2022-12-27T12:02:22.915Z,31.62
2022-12-27T12:06:06.191Z,30.70
2022-12-27T12:09:58.835Z,24.60
2022-12-27T12:13:51.580Z,34.44
2022-12-27T12:17:35.537Z,27.40
2022-12-27T12:21:22.356Z,22.73
2022-12-27T12:24:56.289Z,36.02
2022-12-27T12:28:58.235Z,31.39
2022-12-27T12:32:35.277Z,32.94
2022-12-27T12:36:06.754Z,32.99
2022-12-27T12:39:37.089Z,24.81
2022-12-27T12:43:00.563Z,25.93
2022-12-27T12:46:26.123Z,37.41
2022-12-27T12:50:17.934Z,31.24
2022-12-27T12:53:54.034Z,23.96
2022-12-27T12:57:19.834Z,21.98
2022-12-27T13:00:45.790Z,24.30
2022-12-27T13:04:34.808Z,26.10
2022-12-27T13:08:05.432Z,39.69
2022-12-27T13:11:46.649Z,32.67
2022-12-27T13:15:23.613Z,38.88
2022-12-27T13:18:51.227Z,41.92
2022-12-27T13:22:18.641Z,46.41
2022-12-27T13:25:44.527Z,46.42
2022-12-27T13:29:27.722Z,43.44
2022-12-27T13:32:59.385Z,49.90
2022-12-27T13:36:28.687Z,49.66
2022-12-27T13:40:23.451Z,41.50
2022-12-27T13:43:58.081Z,41.41
2022-12-27T13:47:43.597Z,41.77
2022-12-27T13:51:37.008Z,44.53
2022-12-27T13:55:34.494Z,49.40
2022-12-27T13:59:15.761Z,48.43
2022-12-27T14:03:00.646Z,42.94
2022-12-27T14:06:45.306Z,46.36
2022-12-27T14:10:15.527Z,41.68
2022-12-27T14:13:32.537Z,41.82
2022-12-27T14:16:59.383Z,50.38
2022-12-27T14:20:46.226Z,40.44
2022-12-27T14:24:21.475Z,47.21
2022-12-27T14:28:24.648Z,42.51
2022-12-27T14:32:11.593Z,41.51
2022-12-27T14:36:17.464Z,38.59
2022-12-27T14:40:34.931Z,42.25
2022-12-27T14:44:37.062Z,44.54
2022-12-27T14:48:38.864Z,40.37
2022-12-27T14:52:47.442Z,42.69
2022-12-27T14:56:15.518Z,82.35
2022-12-27T14:59:44.438Z,91.69
2022-12-27T15:03:27.838Z,154.92
2022-12-27T15:07:22.374Z,239.96
2022-12-27T15:11:08.476Z,230.45
2022-12-27T15:14:46.202Z,246.28
2022-12-27T15:18:28.531Z,247.40
2022-12-27T15:22:01.321Z,262.09
2022-12-27T15:25:29.723Z,231.45
2022-12-27T15:29:04.735Z,212.07
2022-12-27T15:32:35.555Z,258.22
2022-12-27T15:35:59.584Z,255.41
2022-12-27T15:39:08.578Z,215.59
2022-12-27T15:42:48.905Z,176.46
2022-12-27T15:46:23.878Z,187.62
2022-12-27T15:50:13.320Z,154.13
2022-12-27T15:53:43.824Z,208.20
2022-12-27T15:57:51.376Z,221.34
2022-12-27T16:01:31.097Z,183.79
2022-12-27T16:04:53.960Z,152.45
2022-12-27T16:08:30.690Z,168.18
2022-12-27T16:12:07.330Z,161.16
2022-12-27T16:15:54.784Z,140.09
2022-12-27T16:19:41.071Z,190.14
2022-12-27T16:22:58.589Z,191.12
2022-12-27T16:26:12.110Z,175.76
2022-12-27T16:29:20.483Z,222.14
2022-12-27T16:32:31.230Z,263.26
2022-12-27T16:35:41.151Z,232.59
2022-12-27T16:39:06.027Z,241.28
2022-12-27T16:42:13.496Z,221.21
2022-12-27T16:45:49.654Z,218.46
2022-12-27T16:49:55.079Z,214.73
2022-12-27T16:53:39.475Z,232.72
2022-12-27T16:56:48.426Z,219.21
2022-12-27T17:00:05.812Z,266.40
2022-12-27T17:03:35.668Z,226.88
2022-12-27T17:06:59.499Z,220.12
2022-12-27T17:10:50.900Z,250.89
2022-12-27T17:14:11.851Z,303.10
2022-12-27T17:17:24.544Z,455.03
2022-12-27T17:20:34.219Z,339.33
2022-12-27T17:23:45.829Z,348.19
2022-12-27T17:27:16.626Z,345.65
2022-12-27T17:30:40.463Z,301.29
2022-12-27T17:34:09.829Z,239.33
2022-12-27T17:37:28.573Z,245.64
2022-12-27T17:40:50.245Z,226.94
2022-12-27T17:44:30.815Z,223.45
2022-12-27T17:48:06.534Z,273.36
2022-12-27T17:51:21.686Z,307.39
2022-12-27T17:54:50.718Z,332.79
2022-12-27T17:57:59.611Z,246.34
2022-12-27T18:01:06.817Z,260.40
2022-12-27T18:04:27.457Z,264.70
2022-12-27T18:07:37.456Z,230.40
2022-12-27T18:10:45.622Z,238.87
2022-12-27T18:13:59.262Z,221.76
2022-12-27T18:17:07.029Z,192.18
2022-12-27T18:20:39.093Z,214.06
2022-12-27T18:23:49.405Z,224.94
2022-12-27T18:27:08.314Z,207.26
2022-12-27T18:30:16.237Z,227.23
2022-12-27T18:33:34.584Z,231.79
2022-12-27T18:36:53.675Z,221.69
2022-12-27T18:40:07.154Z,226.92
2022-12-27T18:43:18.914Z,240.85
2022-12-27T18:46:34.313Z,226.62
2022-12-27T18:49:41.548Z,216.49
2022-12-27T18:52:54.972Z,217.35
2022-12-27T18:56:07.081Z,209.57
2022-12-27T18:59:29.108Z,211.34
2022-12-27T19:02:39.471Z,204.18
2022-12-27T19:06:06.296Z,206.08
2022-12-27T19:09:24.204Z,219.37
2022-12-27T19:12:39.800Z,284.29
2022-12-27T19:15:47.914Z,298.15
2022-12-27T19:18:58.540Z,259.60
2022-12-27T19:22:05.802Z,233.18
2022-12-27T19:25:30.251Z,262.98
2022-12-27T19:28:38.882Z,245.37
2022-12-27T19:31:54.568Z,220.93
2022-12-27T19:35:08.756Z,247.39
2022-12-27T19:38:24.676Z,216.27
2022-12-27T19:41:34.358Z,197.84
2022-12-27T19:44:41.174Z,205.37
2022-12-27T19:47:54.312Z,194.85
2022-12-27T19:51:03.399Z,181.71
2022-12-27T19:54:22.613Z,305.96
2022-12-27T19:57:36.235Z,249.05
2022-12-27T20:00:59.865Z,195.55
2022-12-27T20:04:11.072Z,188.93
2022-12-27T20:07:27.803Z,209.04
2022-12-27T20:10:37.960Z,209.80
2022-12-27T20:13:50.219Z,187.67
2022-12-27T20:16:57.189Z,182.90
2022-12-27T20:20:06.541Z,168.60
2022-12-27T20:23:17.110Z,198.53
2022-12-27T20:26:28.249Z,199.18
2022-12-27T20:29:37.255Z,193.29
2022-12-27T20:32:44.302Z,203.18
2022-12-27T20:35:59.889Z,207.79
2022-12-27T20:39:07.928Z,205.17
2022-12-27T20:42:14.195Z,200.96
2022-12-27T20:45:23.989Z,201.25
2022-12-27T20:48:30.261Z,212.90
2022-12-27T20:51:38.143Z,218.23
2022-12-27T20:54:44.730Z,241.17
2022-12-27T20:57:51.715Z,251.32
2022-12-27T21:01:00.542Z,249.39
2022-12-27T21:04:07.984Z,251.77
2022-12-27T21:07:14.173Z,255.51
2022-12-27T21:10:21.398Z,271.86
2022-12-27T21:13:27.575Z,265.69
2022-12-27T21:16:38.981Z,244.18
2022-12-27T21:19:45.283Z,258.86
2022-12-27T21:22:52.274Z,236.55
2022-12-27T21:25:58.464Z,255.83
2022-12-27T21:29:09.610Z,269.76
2022-12-27T21:32:18.400Z,256.05
2022-12-27T21:35:25.283Z,249.93
2022-12-27T21:38:32.922Z,239.28
2022-12-27T21:41:43.298Z,228.87
2022-12-27T21:44:49.344Z,221.85
2022-12-27T21:47:58.857Z,235.11
2022-12-27T21:51:09.729Z,250.98
2022-12-27T21:54:17.125Z,246.63
2022-12-27T21:57:23.281Z,238.32
2022-12-27T22:00:30.124Z,223.03
2022-12-27T22:03:41.719Z,216.91
2022-12-27T22:06:48.832Z,290.77
2022-12-27T22:09:54.922Z,310.60
2022-12-27T22:13:01.828Z,279.87
2022-12-27T22:16:14.732Z,287.30
2022-12-27T22:19:24.274Z,313.32
2022-12-27T22:22:30.366Z,292.22
2022-12-27T22:25:37.277Z,266.26
2022-12-27T22:28:44.218Z,254.66
2022-12-27T22:31:51.125Z,222.29
2022-12-27T22:34:59.782Z,230.03
2022-12-27T22:38:07.173Z,230.64
2022-12-27T22:41:17.384Z,224.55
2022-12-27T22:44:24.387Z,220.99
2022-12-27T22:47:30.404Z,219.18
2022-12-27T22:50:40.808Z,198.41
2022-12-27T22:53:47.329Z,210.49
2022-12-27T22:56:54.210Z,218.87
2022-12-27T23:00:00.304Z,219.87
2022-12-27T23:03:07.321Z,207.62
2022-12-27T23:06:16.589Z,209.44
2022-12-27T23:09:23.463Z,219.74
2022-12-27T23:12:29.539Z,225.75
2022-12-27T23:15:36.516Z,225.97
2022-12-27T23:18:43.141Z,209.45
2022-12-27T23:21:52.681Z,192.76
2022-12-27T23:24:58.725Z,195.46
2022-12-27T23:28:05.829Z,181.57
2022-12-27T23:31:14.739Z,176.86
2022-12-27T23:34:27.719Z,169.27
2022-12-27T23:37:37.603Z,177.18
2022-12-27T23:40:44.544Z,177.92
2022-12-27T23:43:54.464Z,174.90
2022-12-27T23:47:02.224Z,165.88
2022-12-27T23:50:10.971Z,152.67
2022-12-27T23:53:21.842Z,156.62
2022-12-27T23:56:30.834Z,155.77
2022-12-27T23:59:37.862Z,158.27
